createdAt,value
2022-07-28T00:06:16.559Z,16.52
2022-07-28T00:17:18.151Z,16.53
2022-07-28T00:28:18.628Z,16.25
2022-07-28T00:39:18.411Z,16.14
2022-07-28T00:50:15.195Z,16.33
2022-07-28T01:01:13.940Z,16.10
2022-07-28T01:12:14.301Z,15.99
2022-07-28T01:23:15.076Z,15.96
2022-07-28T01:34:03.654Z,15.89
2022-07-28T01:45:04.807Z,15.83
2022-07-28T01:56:03.775Z,15.99
2022-07-28T02:07:05.082Z,15.88
2022-07-28T02:18:05.122Z,15.85
2022-07-28T02:29:07.313Z,16.04
2022-07-28T02:40:12.520Z,16.03
2022-07-28T02:51:13.863Z,16.23
2022-07-28T03:02:13.174Z,16.40
2022-07-28T03:13:06.067Z,16.42
2022-07-28T03:24:03.693Z,16.35
2022-07-28T03:35:03.198Z,16.22
2022-07-28T03:46:07.585Z,16.22
2022-07-28T03:57:07.014Z,16.37
2022-07-28T04:08:09.115Z,16.45
2022-07-28T04:19:06.107Z,16.78
2022-07-28T04:29:57.453Z,16.67
2022-07-28T04:40:56.093Z,16.95
2022-07-28T04:51:58.424Z,17.29
2022-07-28T05:02:59.467Z,17.47
2022-07-28T05:14:02.022Z,17.94
2022-07-28T05:25:04.287Z,18.07
2022-07-28T05:36:06.595Z,18.24
2022-07-28T05:47:08.324Z,18.42
2022-07-28T05:58:10.170Z,18.59
2022-07-28T06:09:10.545Z,18.83
2022-07-28T06:20:11.937Z,19.02
2022-07-28T06:31:13.225Z,19.46
2022-07-28T06:42:14.714Z,19.86
2022-07-28T06:53:13.512Z,20.46
2022-07-28T07:04:12.727Z,20.79
2022-07-28T07:15:11.211Z,21.02
2022-07-28T07:26:11.290Z,21.75
2022-07-28T07:37:10.277Z,21.75
2022-07-28T07:47:59.164Z,22.08
2022-07-28T07:58:57.151Z,22.12
2022-07-28T08:09:40.740Z,23.15
2022-07-28T08:20:15.201Z,22.86
2022-07-28T08:30:49.745Z,23.74
2022-07-28T08:41:46.898Z,23.83
2022-07-28T08:52:44.369Z,23.93
2022-07-28T09:03:42.965Z,24.25
2022-07-28T09:14:30.366Z,24.29
2022-07-28T09:25:24.364Z,24.32
2022-07-28T09:36:20.966Z,24.05
2022-07-28T09:47:14.966Z,24.60
2022-07-28T09:58:09.559Z,24.60
2022-07-28T10:09:02.801Z,25.32
2022-07-28T10:19:54.267Z,25.32
2022-07-28T10:30:48.204Z,25.71
2022-07-28T10:41:41.084Z,26.08
2022-07-28T10:52:46.651Z,26.89
2022-07-28T11:03:33.495Z,27.01
2022-07-28T11:14:29.466Z,28.10
2022-07-28T11:25:22.985Z,28.53
2022-07-28T11:36:14.911Z,29.10
2022-07-28T11:47:10.577Z,32.58
2022-07-28T11:58:09.143Z,33.44
2022-07-28T12:09:04.096Z,34.10
2022-07-28T12:20:02.613Z,32.18
2022-07-28T12:31:00.122Z,31.29
2022-07-28T12:41:52.865Z,29.13
2022-07-28T12:52:56.289Z,34.70
2022-07-28T13:03:43.285Z,34.25
2022-07-28T13:14:21.419Z,34.32
2022-07-28T13:25:04.513Z,32.83
2022-07-28T13:35:46.236Z,34.70
2022-07-28T13:46:34.836Z,34.64
2022-07-28T13:57:24.861Z,33.63
2022-07-28T14:08:25.162Z,34.08
2022-07-28T14:19:38.111Z,33.77
2022-07-28T14:30:28.394Z,34.47
2022-07-28T14:41:29.163Z,32.69
2022-07-28T14:52:26.969Z,34.82
2022-07-28T15:03:17.155Z,32.40
2022-07-28T15:14:13.785Z,30.24
2022-07-28T15:25:04.188Z,29.75
2022-07-28T15:35:59.363Z,29.63
2022-07-28T15:46:48.473Z,29.59
2022-07-28T15:57:23.729Z,29.41
2022-07-28T16:08:17.339Z,29.38
2022-07-28T16:19:31.603Z,28.88
2022-07-28T16:30:13.127Z,28.59
2022-07-28T16:41:05.480Z,27.60
2022-07-28T16:51:58.746Z,27.83
2022-07-28T17:02:48.948Z,27.38
2022-07-28T17:13:45.736Z,27.67
2022-07-28T17:24:35.243Z,27.49
2022-07-28T17:35:34.579Z,27.02
2022-07-28T17:46:10.288Z,26.46
2022-07-28T17:56:58.507Z,25.79
2022-07-28T18:07:59.284Z,24.90
2022-07-28T18:18:57.107Z,24.22
2022-07-28T18:29:55.104Z,23.63
2022-07-28T18:40:53.878Z,23.31
2022-07-28T18:51:50.915Z,23.00
2022-07-28T19:02:49.880Z,22.69
2022-07-28T19:13:47.622Z,22.42
2022-07-28T19:24:44.954Z,22.15
2022-07-28T19:35:44.334Z,22.01
2022-07-28T19:46:43.854Z,21.86
2022-07-28T19:57:35.348Z,21.84
2022-07-28T20:08:31.213Z,21.98
2022-07-28T20:19:30.002Z,21.97
2022-07-28T20:30:29.592Z,22.02
2022-07-28T20:41:25.384Z,21.79
2022-07-28T20:52:25.753Z,21.66
2022-07-28T21:03:22.856Z,21.36
2022-07-28T21:14:05.356Z,21.06
2022-07-28T21:25:05.329Z,20.80
2022-07-28T21:36:02.801Z,20.74
2022-07-28T21:47:02.046Z,20.50
2022-07-28T21:58:00.987Z,20.40
2022-07-28T22:09:02.669Z,20.15
2022-07-28T22:20:00.991Z,20.27
2022-07-28T22:30:58.820Z,20.24
2022-07-28T22:41:59.552Z,20.18
2022-07-28T22:53:00.620Z,20.27
2022-07-28T23:03:59.727Z,20.20
2022-07-28T23:14:56.206Z,20.37
2022-07-28T23:25:31.812Z,20.26
2022-07-28T23:36:32.610Z,20.26
2022-07-28T23:47:30.357Z,20.28
2022-07-28T23:58:30.084Z,20.42
